Time;durP1;ratioP1;P1;durP2;ratioP2;P2;SDS_P1;SDS_P2;PMS_P1;PMS_P2;Temp;Humidity;BMP_temperature;BMP_pressure;BME280_temperature;BME280_humidity;BME280_pressure;Samples;Min_cycle;Max_cycle;Signal;HPM_P1;HPM_P2
2022/05/29 00:01:26;;;;;;;5.03;2.50;;;;;;;6.65;100.00;100742.78;5049080;28;20129;-69
2022/05/29 00:03:52;;;;;;;9.95;2.60;;;;;;;6.77;100.00;100768.53;5049584;28;20024;-70
2022/05/29 00:06:17;;;;;;;5.45;2.25;;;;;;;6.68;100.00;100755.75;5050532;28;20868;-70
2022/05/29 00:08:44;;;;;;;4.18;2.20;;;;;;;6.71;100.00;100771.31;5051659;28;20068;-70
2022/05/29 00:11:12;;;;;;;4.75;2.45;;;;;;;6.72;100.00;100753.91;5046856;28;20028;-68
2022/05/29 00:13:38;;;;;;;5.22;2.35;;;;;;;6.73;100.00;100760.81;5044790;28;20163;-68
2022/05/29 00:16:04;;;;;;;5.28;2.22;;;;;;;6.74;100.00;100757.31;5046054;28;21049;-68
2022/05/29 00:18:29;;;;;;;7.85;2.75;;;;;;;6.74;100.00;100752.09;5046297;28;20096;-68
2022/05/29 00:20:56;;;;;;;4.82;1.83;;;;;;;6.79;100.00;100761.53;5044654;28;20035;-68
2022/05/29 00:23:23;;;;;;;3.80;2.03;;;;;;;6.71;100.00;100737.38;5046897;28;20340;-68
2022/05/29 00:25:52;;;;;;;7.43;2.30;;;;;;;6.80;100.00;100752.78;5031388;28;20027;-68
2022/05/29 00:28:17;;;;;;;3.35;1.70;;;;;;;6.76;100.00;100747.69;5041226;28;20025;-68
2022/05/29 00:30:43;;;;;;;6.60;2.78;;;;;;;6.58;100.00;100728.19;5041546;28;20912;-68
2022/05/29 00:33:08;;;;;;;5.90;2.40;;;;;;;6.61;100.00;100741.16;5046463;28;20085;-69
2022/05/29 00:35:37;;;;;;;8.98;2.40;;;;;;;6.62;100.00;100745.47;5029234;28;20032;-69
2022/05/29 00:38:03;;;;;;;4.15;1.80;;;;;;;6.61;100.00;100762.91;5043431;28;20044;-69
2022/05/29 00:40:34;;;;;;;3.60;1.73;;;;;;;6.54;100.00;100750.91;5044323;28;20078;-69
2022/05/29 00:42:59;;;;;;;5.57;1.65;;;;;;;6.48;100.00;100752.84;5045495;28;20826;-70
2022/05/29 00:45:25;;;;;;;5.82;1.75;;;;;;;6.48;100.00;100745.00;5046390;28;20168;-69
2022/05/29 00:47:52;;;;;;;7.35;2.13;;;;;;;6.25;100.00;100721.31;5044769;28;20887;-70
2022/05/29 00:50:20;;;;;;;5.97;2.17;;;;;;;6.39;100.00;100740.03;5045858;28;20063;-69
2022/05/29 00:52:45;;;;;;;3.78;1.75;;;;;;;6.28;100.00;100731.66;5032595;28;20028;-70
2022/05/29 00:55:18;;;;;;;4.03;1.98;;;;;;;6.19;100.00;100727.53;5045795;28;20032;-69
2022/05/29 00:57:46;;;;;;;6.20;1.80;;;;;;;6.17;100.00;100734.56;5044918;28;20152;-69
2022/05/29 01:00:16;;;;;;;7.00;2.20;;;;;;;6.03;100.00;100736.66;5045697;28;20878;-69
2022/05/29 01:02:43;;;;;;;6.45;2.00;;;;;;;5.90;100.00;100725.69;5049583;28;20028;-69
2022/05/29 01:05:10;;;;;;;4.03;2.08;;;;;;;5.92;100.00;100738.69;5092072;28;20398;-69
2022/05/29 01:07:37;;;;;;;3.33;1.80;;;;;;;5.85;100.00;100732.75;5091348;28;20138;-69
2022/05/29 01:10:04;;;;;;;4.88;2.20;;;;;;;5.82;100.00;100734.56;5085224;28;20155;-69
2022/05/29 01:12:48;;;;;;;2.95;1.50;;;;;;;5.73;100.00;100724.38;5083208;28;20086;-69
2022/05/29 01:15:27;;;;;;;6.55;2.50;;;;;;;5.66;100.00;100721.06;5077785;28;20498;-69
2022/05/29 01:18:00;;;;;;;11.60;2.30;;;;;;;5.66;100.00;100721.06;5077644;28;20029;-69
2022/05/29 01:20:39;;;;;;;8.45;2.42;;;;;;;5.64;100.00;100722.88;5078345;28;20081;-69
2022/05/29 01:23:17;;;;;;;6.63;2.38;;;;;;;5.57;100.00;100709.13;5107545;28;20036;-69
2022/05/29 01:25:58;;;;;;;3.50;2.10;;;;;;;5.59;100.00;100712.56;5091863;28;20475;-69
2022/05/29 01:28:44;;;;;;;5.43;1.92;;;;;;;5.46;100.00;100703.31;5091209;28;20032;-69
2022/05/29 01:31:22;;;;;;;13.25;3.13;;;;;;;5.52;100.00;100707.53;5090549;28;20431;-69
2022/05/29 01:33:57;;;;;;;5.05;2.10;;;;;;;5.56;100.00;100714.38;5090209;28;20024;-70
2022/05/29 01:37:04;;;;;;;7.40;2.70;;;;;;;5.59;100.00;100706.47;5090090;28;20538;-69
2022/05/29 01:39:47;;;;;;;9.52;2.80;;;;;;;5.64;100.00;100704.63;5075308;28;20047;-70
2022/05/29 01:42:25;;;;;;;5.20;2.55;;;;;;;5.59;100.00;100693.44;5091174;28;20036;-69
2022/05/29 01:44:58;;;;;;;9.50;2.75;;;;;;;5.59;100.00;100703.88;5053282;28;20036;-69
2022/05/29 01:47:33;;;;;;;4.55;2.38;;;;;;;5.37;100.00;100664.47;5040563;28;20867;-69
2022/05/29 01:50:07;;;;;;;12.52;2.22;;;;;;;5.60;100.00;100703.84;5043793;28;20026;-69
2022/05/29 01:52:37;;;;;;;5.07;2.72;;;;;;;5.45;100.00;100670.34;5067615;28;20393;-69
2022/05/29 01:55:14;;;;;;;5.72;2.25;;;;;;;5.44;100.00;100666.00;5091619;28;20028;-69
2022/05/29 01:57:42;;;;;;;5.97;2.20;;;;;;;5.44;100.00;100668.63;5091699;28;20462;-68
2022/05/29 02:00:17;;;;;;;6.75;2.53;;;;;;;5.53;100.00;100683.19;5085864;28;20024;-69
2022/05/29 02:02:49;;;;;;;;;;;;;;;5.51;100.00;100682.34;5076338;28;20139;-68
2022/05/29 02:05:18;;;;;;;5.22;1.88;;;;;;;5.46;100.00;100684.22;5048375;28;20014;-69
2022/05/29 02:07:48;;;;;;;4.40;2.40;;;;;;;5.30;100.00;100675.06;5048029;28;20147;-68
2022/05/29 02:10:41;;;;;;;4.70;2.28;;;;;;;4.91;100.00;100610.03;5048362;28;20923;-68
2022/05/29 02:13:31;;;;;;;4.57;2.40;;;;;;;5.36;100.00;100680.13;5061907;28;20043;-69
2022/05/29 02:15:56;;;;;;;8.63;2.75;;;;;;;5.33;100.00;100675.00;5091678;28;20166;-68
2022/05/29 02:18:45;;;;;;;6.47;2.80;;;;;;;5.27;100.00;100670.81;5094946;28;20030;-68
2022/05/29 02:21:14;;;;;;;8.65;3.30;;;;;;;5.25;100.00;100683.00;5093492;28;20039;-69
2022/05/29 02:23:46;;;;;;;6.00;2.55;;;;;;;5.17;100.00;100668.44;5073213;28;20020;-69
2022/05/29 02:26:14;;;;;;;4.38;2.38;;;;;;;4.95;100.00;100642.91;5090726;28;20032;-69
2022/05/29 02:28:47;;;;;;;8.32;3.03;;;;;;;4.95;100.00;100642.91;5095334;28;20477;-69
2022/05/29 02:31:27;;;;;;;6.95;2.88;;;;;;;5.16;100.00;100678.00;5093605;28;20035;-69
2022/05/29 02:34:01;;;;;;;3.28;1.77;;;;;;;5.10;100.00;100663.38;5095296;28;20149;-69
2022/05/29 02:36:39;;;;;;;16.27;3.22;;;;;;;5.12;100.00;100666.81;5095301;28;20386;-69
2022/05/29 02:39:15;;;;;;;7.07;2.60;;;;;;;5.09;100.00;100661.69;5093861;28;20133;-68
2022/05/29 02:42:03;;;;;;;3.75;1.95;;;;;;;5.08;100.00;100657.34;5094594;28;20036;-68
2022/05/29 02:44:54;;;;;;;6.05;2.72;;;;;;;4.96;100.00;100656.78;5074357;28;20024;-68
2022/05/29 02:47:20;;;;;;;5.38;2.47;;;;;;;4.95;100.00;100657.66;5090154;28;20107;-67
2022/05/29 02:49:55;;;;;;;6.40;2.65;;;;;;;4.85;100.00;100641.41;5094262;28;20115;-68
2022/05/29 02:52:21;;;;;;;5.80;2.65;;;;;;;4.89;100.00;100645.66;5093604;28;20028;-68
2022/05/29 02:54:46;;;;;;;4.53;2.50;;;;;;;4.88;100.00;100646.53;5071259;28;20908;-67
2022/05/29 02:57:12;;;;;;;5.13;2.33;;;;;;;4.93;100.00;100649.06;5048472;28;20879;-67
2022/05/29 02:59:41;;;;;;;6.55;3.35;;;;;;;4.93;100.00;100649.91;5057480;28;20120;-68
2022/05/29 03:02:47;;;;;;;10.77;3.58;;;;;;;4.97;100.00;100646.31;5093314;28;20024;-68
2022/05/29 03:05:47;;;;;;;5.40;2.80;;;;;;;5.03;100.00;100656.63;5074543;28;20546;-68
2022/05/29 03:08:36;;;;;;;5.47;2.47;;;;;;;5.09;100.00;100656.47;5066420;28;20466;-68
2022/05/29 03:11:08;;;;;;;9.95;3.63;;;;;;;4.92;100.00;100616.94;5088814;28;20028;-69
2022/05/29 03:13:52;;;;;;;6.95;3.00;;;;;;;5.23;100.00;100639.66;5085086;28;20479;-68
2022/05/29 03:16:31;;;;;;;9.95;3.30;;;;;;;5.36;100.00;100656.69;5076388;28;20054;-68
2022/05/29 03:19:23;;;;;;;9.48;3.88;;;;;;;5.46;100.00;100655.56;5092722;28;20016;-68
2022/05/29 03:22:16;;;;;;;9.35;4.38;;;;;;;5.57;100.00;100650.94;5090474;28;20032;-68
2022/05/29 03:24:47;;;;;;;6.90;3.47;;;;;;;5.64;100.00;100644.69;5094121;28;20103;-68
2022/05/29 03:27:19;;;;;;;12.43;3.50;;;;;;;5.75;100.00;100646.97;5082649;28;20028;-68
2022/05/29 03:30:05;;;;;;;7.30;3.00;;;;;;;5.83;100.00;100640.69;5094183;28;20394;-68
2022/05/29 03:32:31;;;;;;;7.97;3.50;;;;;;;5.76;100.00;100615.66;5085400;28;20036;-68
2022/05/29 03:34:56;;;;;;;7.95;3.40;;;;;;;5.95;100.00;100639.50;5094369;28;20103;-68
2022/05/29 03:37:22;;;;;;;24.15;3.85;;;;;;;6.00;100.00;100637.63;5093874;28;20048;-69
2022/05/29 03:39:47;;;;;;;7.10;4.07;;;;;;;5.99;100.00;100628.97;5091077;28;20028;-69
2022/05/29 03:42:13;;;;;;;10.70;3.75;;;;;;;6.07;100.00;100634.81;5078431;28;20034;-69
2022/05/29 03:44:38;;;;;;;10.40;3.50;;;;;;;6.16;100.00;100626.72;5093312;28;20024;-70
2022/05/29 03:47:04;;;;;;;10.43;4.03;;;;;;;6.20;100.00;100624.03;5077630;28;20028;-68
2022/05/29 03:49:30;;;;;;;8.55;3.70;;;;;;;6.32;100.00;100628.91;5092861;28;20047;-68
2022/05/29 03:51:55;;;;;;;6.88;3.17;;;;;;;6.32;100.00;100619.31;5092667;28;20051;-68
2022/05/29 03:54:20;;;;;;;8.68;3.42;;;;;;;6.42;100.00;100625.13;5092966;28;20067;-68
2022/05/29 03:56:46;;;;;;;7.10;3.15;;;;;;;6.38;100.00;100618.28;5092738;28;20039;-68
2022/05/29 03:59:12;;;;;;;8.32;3.90;;;;;;;6.43;100.00;100627.69;5052502;28;20828;-69
2022/05/29 04:01:38;;;;;;;8.43;3.78;;;;;;;6.45;100.00;100625.03;5046792;28;20028;-69
2022/05/29 04:04:03;;;;;;;9.93;3.70;;;;;;;6.53;100.00;100628.25;5049284;28;20326;-68
2022/05/29 04:06:30;;;;;;;5.40;2.95;;;;;;;6.48;100.00;100609.28;5091306;28;20020;-68
2022/05/29 04:14:25;;;;;;;6.07;3.15;;;;;;;6.51;100.00;100603.97;5092990;28;20497;-68
2022/05/29 04:16:52;;;;;;;4.85;2.83;;;;;;;6.62;100.00;100613.16;5092099;28;20024;-68
2022/05/29 04:19:18;;;;;;;6.75;3.40;;;;;;;6.59;100.00;100609.81;5092554;28;20031;-68
2022/05/29 04:21:44;;;;;;;13.68;3.70;;;;;;;6.65;100.00;100623.53;5090193;28;20020;-68
2022/05/29 04:24:09;;;;;;;5.10;3.10;;;;;;;6.56;100.00;100605.53;5046410;28;20032;-68
2022/05/29 04:26:36;;;;;;;7.82;3.53;;;;;;;6.52;100.00;100618.75;5033744;28;20055;-68
2022/05/29 04:29:03;;;;;;;8.18;3.20;;;;;;;6.52;100.00;100614.34;5047259;28;20055;-68
2022/05/29 04:31:29;;;;;;;6.57;3.72;;;;;;;6.46;100.00;100603.25;5092788;28;20497;-68
2022/05/29 04:33:54;;;;;;;10.55;3.22;;;;;;;6.47;100.00;100607.56;5092742;28;20020;-68
2022/05/29 04:36:19;;;;;;;14.40;4.20;;;;;;;6.50;100.00;100607.47;5093037;28;20551;-69
2022/05/29 04:38:45;;;;;;;6.68;3.55;;;;;;;6.56;100.00;100608.13;5093061;28;20032;-68
2022/05/29 04:41:10;;;;;;;6.22;3.05;;;;;;;6.58;100.00;100601.13;5093038;28;20096;-69
2022/05/29 04:43:36;;;;;;;8.73;3.80;;;;;;;6.35;100.00;100551.41;5076717;28;20024;-68
2022/05/29 04:46:02;;;;;;;8.02;4.25;;;;;;;6.70;100.00;100599.88;5078466;28;20035;-68
2022/05/29 04:48:27;;;;;;;4.88;3.13;;;;;;;6.85;100.00;100599.41;5090818;28;20016;-68
2022/05/29 04:51:00;;;;;;;8.90;3.50;;;;;;;6.89;100.00;100597.56;5092168;28;20027;-68
2022/05/29 04:53:27;;;;;;;12.70;4.50;;;;;;;6.79;100.00;100565.66;5081174;28;20035;-68
2022/05/29 04:55:54;;;;;;;5.28;2.97;;;;;;;6.94;100.00;100578.22;5090893;28;20384;-68
2022/05/29 04:58:20;;;;;;;8.88;3.90;;;;;;;7.14;100.00;100601.94;5093079;28;20072;-68
2022/05/29 05:00:46;;;;;;;8.13;3.72;;;;;;;7.12;100.00;100589.84;5092537;28;20028;-69
2022/05/29 05:03:11;;;;;;;12.38;4.25;;;;;;;7.11;100.00;100575.91;5091600;28;20028;-69
2022/05/29 05:05:36;;;;;;;10.98;4.15;;;;;;;7.23;100.00;100584.25;5091410;28;20035;-70
2022/05/29 05:08:03;;;;;;;6.40;3.40;;;;;;;7.03;100.00;100538.72;5091753;28;20027;-69
2022/05/29 05:10:28;;;;;;;7.57;4.22;;;;;;;7.36;100.00;100585.53;5092159;28;20032;-68
2022/05/29 05:12:54;;;;;;;5.90;3.38;;;;;;;7.41;100.00;100583.63;5090456;28;20024;-69
2022/05/29 05:15:20;;;;;;;7.95;3.78;;;;;;;7.55;100.00;100590.09;5092773;28;20101;-69
2022/05/29 05:17:45;;;;;;;6.60;3.80;;;;;;;7.56;100.00;100575.25;5091259;28;20020;-69
2022/05/29 05:20:11;;;;;;;7.95;3.53;;;;;;;7.68;100.00;100587.88;5092850;28;20115;-69
2022/05/29 05:22:37;;;;;;;10.13;4.10;;;;;;;7.70;100.00;100588.72;5092717;28;20809;-69
2022/05/29 05:25:02;;;;;;;9.27;4.18;;;;;;;7.79;100.00;100584.88;5090927;28;20020;-69
2022/05/29 05:27:28;;;;;;;13.55;4.25;;;;;;;7.77;100.00;100582.34;5092304;28;20032;-69
2022/05/29 05:29:53;;;;;;;8.88;4.13;;;;;;;7.79;100.00;100584.88;5091149;28;20031;-69
2022/05/29 05:32:19;;;;;;;5.45;2.95;;;;;;;7.90;100.00;100588.84;5092751;28;20032;-69
2022/05/29 05:34:44;;;;;;;6.32;2.92;;;;;;;8.00;100.00;100587.59;5095422;28;20107;-69
2022/05/29 05:37:11;;;;;;;10.85;3.70;;;;;;;8.11;100.00;100593.28;5095593;28;20024;-69
2022/05/29 05:39:36;;;;;;;10.32;3.58;;;;;;;8.14;100.00;100572.22;5090780;28;20107;-69
2022/05/29 05:42:02;;;;;;;16.00;4.15;;;;;;;8.17;100.00;100579.97;5048455;28;20052;-69
2022/05/29 05:44:27;;;;;;;8.02;3.75;;;;;;;8.23;100.00;100584.97;5045941;28;20036;-69
2022/05/29 05:46:53;;;;;;;10.60;4.18;;;;;;;8.23;100.00;100581.50;5043312;28;20089;-69
2022/05/29 05:49:21;;;;;;;7.85;3.78;;;;;;;8.30;100.00;100577.78;5050150;28;20217;-69
2022/05/29 05:51:47;;;;;;;6.13;3.75;;;;;;;8.41;100.00;100580.00;5048441;28;20024;-69
2022/05/29 05:54:13;;;;;;;8.60;4.20;;;;;;;8.45;100.00;100585.03;5048340;28;20044;-68
2022/05/29 05:56:43;;;;;;;13.85;4.03;;;;;;;8.49;100.00;100589.25;5036390;28;20032;-69
2022/05/29 05:59:09;;;;;;;19.00;4.53;;;;;;;8.49;100.00;100594.47;5082437;28;20031;-69
2022/05/29 06:01:34;;;;;;;10.20;4.07;;;;;;;8.41;100.00;100575.63;5095348;28;20020;-69
2022/05/29 06:03:59;;;;;;;7.88;3.60;;;;;;;8.41;100.00;100585.22;5095755;28;20422;-69
2022/05/29 06:06:25;;;;;;;11.93;3.83;;;;;;;8.43;100.00;100589.50;5095848;28;20028;-70
2022/05/29 06:08:50;;;;;;;9.43;4.50;;;;;;;8.44;100.00;100579.88;5095839;28;20506;-69
2022/05/29 06:11:16;;;;;;;9.00;3.92;;;;;;;8.53;100.00;100595.22;5095583;28;20036;-69
2022/05/29 06:13:41;;;;;;;11.27;3.75;;;;;;;8.29;100.00;100555.13;5095803;28;20032;-69
2022/05/29 06:16:08;;;;;;;12.25;4.85;;;;;;;8.50;100.00;100597.97;5094569;28;20020;-69
2022/05/29 06:18:34;;;;;;;11.93;3.95;;;;;;;8.56;100.00;100600.34;5094855;28;20024;-69
2022/05/29 06:21:01;;;;;;;9.95;4.85;;;;;;;8.51;100.00;100591.81;5094490;28;20047;-70
2022/05/29 06:23:28;;;;;;;11.25;4.10;;;;;;;8.50;100.00;100593.56;5093668;28;20077;-69
2022/05/29 06:25:53;;;;;;;11.80;4.05;;;;;;;8.56;100.00;100602.94;5094279;28;20038;-69
2022/05/29 06:28:19;;;;;;;11.30;4.38;;;;;;;8.57;100.00;100604.66;5093391;28;20020;-69
2022/05/29 06:30:44;;;;;;;12.75;4.18;;;;;;;8.54;100.00;100602.19;5094288;28;20454;-69
2022/05/29 06:33:11;;;;;;;14.40;3.92;;;;;;;8.58;100.00;100609.00;5094604;28;20028;-69
2022/05/29 06:35:36;;;;;;;9.52;4.03;;;;;;;8.44;100.00;100600.81;5094440;28;20039;-69
2022/05/29 06:38:02;;;;;;;10.70;4.28;;;;;;;8.27;100.00;100598.81;5087823;28;20035;-69
2022/05/29 06:40:27;;;;;;;11.25;4.57;;;;;;;8.21;100.00;100593.81;5094771;28;20034;-69
2022/05/29 06:42:52;;;;;;;9.00;4.80;;;;;;;8.18;100.00;100599.97;5094175;28;20081;-69
2022/05/29 06:45:18;;;;;;;10.07;5.32;;;;;;;8.05;100.00;100576.94;5079762;28;20104;-69
2022/05/29 06:47:43;;;;;;;8.98;4.57;;;;;;;8.13;100.00;100595.84;5093908;28;20020;-69
2022/05/29 06:50:09;;;;;;;10.30;4.43;;;;;;;8.12;100.00;100589.75;5094503;28;20390;-70
2022/05/29 06:52:35;;;;;;;7.82;4.93;;;;;;;7.99;100.00;100571.94;5088147;28;20028;-70
2022/05/29 06:55:01;;;;;;;8.40;5.32;;;;;;;8.11;100.00;100593.28;5078228;28;20113;-69
2022/05/29 06:57:36;;;;;;;8.27;4.90;;;;;;;8.08;100.00;100579.44;5076146;28;20043;-70
2022/05/29 07:08:03;;;;;;;11.20;5.57;;;;;;;8.09;100.00;100595.09;5093572;28;20137;-70
2022/05/29 07:10:29;;;;;;;15.73;6.07;;;;;;;8.17;100.00;100595.69;5092669;28;20035;-70
2022/05/29 07:12:56;;;;;;;13.27;5.07;;;;;;;8.19;100.00;100600.84;5083370;28;20901;-72
2022/05/29 07:15:22;;;;;;;9.45;5.75;;;;;;;8.21;100.00;100604.28;5050324;28;20028;-70
2022/05/29 07:17:47;;;;;;;11.02;5.72;;;;;;;8.29;100.00;100591.78;5034129;28;20135;-70
2022/05/29 07:20:13;;;;;;;11.10;5.45;;;;;;;8.37;100.00;100602.81;5051294;28;20028;-70
2022/05/29 07:22:40;;;;;;;12.65;5.13;;;;;;;8.41;100.00;100590.47;5051370;28;20032;-70
2022/05/29 07:25:06;;;;;;;9.25;4.93;;;;;;;8.47;100.00;100598.09;5053457;28;20024;-71
2022/05/29 07:27:32;;;;;;;9.25;4.88;;;;;;;8.52;100.00;100598.75;5056482;28;20090;-71
2022/05/29 07:29:57;;;;;;;9.80;4.55;;;;;;;8.61;100.00;100598.41;5057711;28;20842;-70
2022/05/29 07:32:24;;;;;;;11.57;5.22;;;;;;;8.65;100.00;100605.25;5059101;28;20086;-72
2022/05/29 07:34:50;;;;;;;10.48;4.72;;;;;;;8.71;100.00;100570.94;5057659;28;20046;-70
2022/05/29 07:37:16;;;;;;;6.32;3.83;;;;;;;8.82;100.00;100588.84;5056374;28;20024;-72
2022/05/29 07:39:45;;;;;;;5.85;3.33;;;;;;;8.98;100.00;100603.03;5057593;28;20028;-71
2022/05/29 07:44:55;;;;;;;7.33;3.47;;;;;;;8.95;100.00;100577.81;5052104;28;20146;-74
2022/05/29 07:47:22;;;;;;;6.13;3.50;;;;;;;9.25;100.00;100596.66;5059683;28;20170;-72
2022/05/29 07:49:47;;;;;;;11.00;3.75;;;;;;;9.31;100.00;100608.66;5055466;28;20024;-67
2022/05/29 07:52:12;;;;;;;9.90;3.25;;;;;;;9.32;100.00;100581.53;5061875;28;20032;-72
2022/05/29 07:54:38;;;;;;;6.68;2.85;;;;;;;9.54;100.00;100583.16;5056039;28;20737;-70
2022/05/29 07:57:04;;;;;;;5.97;2.88;;;;;;;9.61;100.00;100562.78;5050033;28;20138;-72
2022/05/29 07:59:30;;;;;;;4.85;2.63;;;;;;;9.89;100.00;100593.91;5056802;28;20032;-70
2022/05/29 08:01:55;;;;;;;6.18;2.75;;;;;;;9.92;100.00;100584.13;5063600;28;20063;-70
2022/05/29 08:04:21;;;;;;;5.35;2.65;;;;;;;10.04;100.00;100594.06;5057724;28;20153;-68
2022/05/29 08:06:47;;;;;;;5.93;2.80;;;;;;;10.11;100.00;100584.13;5057091;28;20016;-73
2022/05/29 08:09:12;;;;;;;2.90;1.25;;;;;;;10.13;100.00;100556.06;5075891;28;20089;-72
2022/05/29 08:11:38;;;;;;;3.40;1.40;;;;;;;10.34;100.00;100580.53;5057884;28;20139;-75
2022/05/29 08:14:04;;;;;;;3.47;1.60;;;;;;;10.57;100.00;100593.44;5057896;28;20079;-69
2022/05/29 08:16:29;;;;;;;2.97;1.50;;;;;;;10.57;100.00;100585.56;5063468;28;20028;-71
2022/05/29 08:18:55;;;;;;;3.22;1.50;;;;;;;10.71;100.00;100585.75;5057383;28;20113;-68
2022/05/29 08:21:20;;;;;;;5.30;2.03;;;;;;;10.65;100.00;100572.88;5058756;28;20052;-69
2022/05/29 08:31:58;;;;;;;3.38;1.38;;;;;;;10.17;100.00;100600.50;5056278;28;20043;-70
2022/05/29 08:34:23;;;;;;;3.15;1.55;;;;;;;10.17;100.00;100590.00;5060956;28;20055;-71
2022/05/29 08:36:49;;;;;;;4.47;2.53;;;;;;;10.35;100.00;100604.06;5053409;28;20034;-69
2022/05/29 08:39:15;;;;;;;7.45;3.67;;;;;;;10.15;100.00;100570.84;5061721;28;20039;-69
2022/05/29 08:41:45;;;;;;;3.20;1.77;;;;;;;10.34;100.00;100578.75;5055636;28;20055;-69
2022/05/29 08:44:16;;;;;;;5.78;2.20;;;;;;;10.39;100.00;100568.00;5059462;28;20028;-69
2022/05/29 08:46:49;;;;;;;6.72;2.28;;;;;;;10.60;100.00;100598.53;5055196;28;20097;-70
2022/05/29 08:49:18;;;;;;;7.22;2.60;;;;;;;10.47;100.00;100600.03;5052365;28;20031;-67
2022/05/29 08:51:58;;;;;;;8.02;4.47;;;;;;;10.18;100.00;100589.09;5054110;28;20023;-69
2022/05/29 08:54:48;;;;;;;8.68;3.90;;;;;;;10.05;100.00;100593.16;5053326;28;20856;-69
2022/05/29 08:57:23;;;;;;;5.38;2.60;;;;;;;10.07;100.00;100593.94;5053208;28;20056;-70
2022/05/29 08:59:51;;;;;;;7.28;3.67;;;;;;;10.01;100.00;100575.84;5046396;28;20028;-69
2022/05/29 09:02:46;;;;;;;6.78;3.08;;;;;;;10.13;100.00;100583.19;5047391;28;20109;-70
2022/05/29 09:05:19;;;;;;;6.22;2.63;;;;;;;10.13;100.00;100551.66;5036203;28;20034;-71
2022/05/29 09:07:45;;;;;;;9.63;2.65;;;;;;;10.49;100.00;100579.78;5045726;28;20028;-69
2022/05/29 09:10:20;;;;;;;5.00;2.25;;;;;;;10.49;100.00;100540.38;5046832;28;20205;-68
2022/05/29 09:12:51;;;;;;;3.75;2.08;;;;;;;10.69;100.00;100569.19;5036735;28;20052;-70
2022/05/29 09:15:40;;;;;;;5.25;2.85;;;;;;;10.75;100.00;100572.38;5046280;28;20182;-70
2022/05/29 09:18:12;;;;;;;7.05;3.05;;;;;;;10.37;100.00;100501.56;5041004;28;20930;-70
2022/05/29 09:20:55;;;;;;;4.85;2.30;;;;;;;10.78;100.00;100571.41;5050562;28;20032;-67
2022/05/29 09:23:27;;;;;;;3.05;1.60;;;;;;;10.79;100.00;100552.06;5047107;28;20794;-68
2022/05/29 09:25:55;;;;;;;2.90;1.10;;;;;;;10.99;100.00;100554.56;5047154;28;20028;-69
2022/05/29 09:28:24;;;;;;;4.30;1.50;;;;;;;11.27;100.00;100539.09;5045539;28;20016;-69
2022/05/29 09:30:52;;;;;;;4.45;2.00;;;;;;;11.31;100.00;100518.75;5045242;28;20046;-69
2022/05/29 09:33:19;;;;;;;3.90;1.55;;;;;;;11.72;100.00;100553.50;5044526;28;20020;-68
2022/05/29 09:36:09;;;;;;;6.20;1.42;;;;;;;11.84;100.00;100549.34;5032184;28;20024;-69
2022/05/29 09:38:44;;;;;;;9.95;2.08;;;;;;;11.86;100.00;100543.09;5045069;28;20031;-70
2022/05/29 09:41:13;;;;;;;5.75;1.63;;;;;;;11.99;100.00;100532.75;5044559;28;20083;-71
2022/05/29 09:43:38;;;;;;;4.13;2.10;;;;;;;12.36;100.00;100536.84;5032894;28;20056;-71
2022/05/29 09:46:21;;;;;;;4.60;1.70;;;;;;;12.56;100.00;100532.19;5045608;28;20035;-71
2022/05/29 09:52:16;;;;;;;11.73;7.07;;;;;;;12.70;100.00;100544.59;5035184;28;20031;-69
2022/05/29 09:54:52;;;;;;;2.95;1.20;;;;;;;12.47;100.00;100534.50;5040395;28;20048;-68
2022/05/29 09:57:23;;;;;;;12.13;1.42;;;;;;;12.49;100.00;100537.88;5046363;28;20097;-69
2022/05/29 09:59:51;;;;;;;4.13;1.55;;;;;;;12.65;100.00;100536.94;5047756;28;20024;-69
2022/05/29 10:02:36;;;;;;;4.18;1.50;;;;;;;12.89;100.00;100526.78;5044428;28;20168;-69
2022/05/29 10:05:02;;;;;;;2.95;1.38;;;;;;;13.03;100.00;100513.63;5044010;28;20524;-70
2022/05/29 10:07:35;;;;;;;5.13;1.52;;;;;;;13.18;100.00;100527.75;5044141;28;20896;-71
2022/05/29 10:10:10;;;;;;;3.28;1.13;;;;;;;13.03;100.00;100470.56;5044380;28;20034;-70
2022/05/29 10:12:49;;;;;;;6.25;2.13;;;;;;;13.52;100.00;100503.66;5044908;28;20032;-66
2022/05/29 10:15:15;;;;;;;3.78;1.63;;;;;;;13.78;100.00;100518.78;5044641;28;20036;-64
2022/05/29 10:17:41;;;;;;;3.30;1.60;;;;;;;13.99;100.00;100511.31;5046355;28;20907;-67
2022/05/29 10:20:31;;;;;;;4.78;1.58;;;;;;;14.25;100.00;100507.03;5049296;28;20917;-64
2022/05/29 10:22:57;;;;;;;7.07;2.15;;;;;;;13.99;100.00;100511.31;5048431;28;20020;-63
2022/05/29 10:25:28;;;;;;;3.75;2.22;;;;;;;14.11;100.00;100513.19;5047502;28;20031;-64
2022/05/29 10:27:57;;;;;;;4.78;2.22;;;;;;;13.34;100.00;100501.31;5046454;28;20032;-66
2022/05/29 10:30:49;;;;;;;4.80;2.00;;;;;;;13.22;100.00;100509.00;5047136;28;20036;-64
2022/05/29 10:33:23;;;;;;;4.53;1.92;;;;;;;13.33;100.00;100516.28;5044799;28;20058;-65
2022/05/29 10:35:51;;;;;;;4.57;2.22;;;;;;;13.46;100.00;100490.00;5033137;28;20035;-63
2022/05/29 10:38:18;;;;;;;5.10;2.15;;;;;;;13.67;100.00;100509.81;5044756;28;20252;-65
2022/05/29 10:40:45;;;;;;;4.65;1.73;;;;;;;13.79;100.00;100504.63;5045694;28;20824;-64
2022/05/29 10:43:11;;;;;;;6.63;2.33;;;;;;;13.73;100.00;100506.78;5046900;28;20032;-63
2022/05/29 10:45:45;;;;;;;5.00;2.15;;;;;;;13.46;100.00;100498.75;5046747;28;20901;-64
2022/05/29 10:48:16;;;;;;;4.88;2.47;;;;;;;13.20;100.00;100513.53;5048134;28;20023;-64
2022/05/29 10:50:59;;;;;;;4.88;2.10;;;;;;;12.91;100.00;100509.06;5047929;28;20074;-63
2022/05/29 10:53:53;;;;;;;4.40;2.45;;;;;;;12.79;100.00;100509.78;5045761;28;20036;-65
2022/05/29 10:56:43;;;;;;;7.00;2.67;;;;;;;12.76;100.00;100500.25;5036380;28;20131;-64
2022/05/29 10:59:09;;;;;;;6.13;2.83;;;;;;;12.85;100.00;100512.06;5047382;28;20040;-65
2022/05/29 11:04:48;;;;;;;4.22;1.77;;;;;;;13.61;100.00;100494.34;5048664;28;21609;-67
2022/05/29 11:07:46;;;;;;;7.63;2.55;;;;;;;13.59;100.00;100496.22;5035991;28;20032;-64
2022/05/29 11:10:33;;;;;;;10.68;2.58;;;;;;;13.55;100.00;100489.47;5046411;28;20094;-64
2022/05/29 11:13:07;;;;;;;3.55;1.50;;;;;;;13.79;100.00;100480.84;5052839;28;20032;-64
2022/05/29 11:15:47;;;;;;;6.45;2.40;;;;;;;13.88;100.00;100476.81;5068297;28;20063;-64
2022/05/29 11:18:48;;;;;;;4.25;2.22;;;;;;;14.08;100.00;100463.19;5062268;28;20173;-66
2022/05/29 11:21:24;;;;;;;5.50;1.92;;;;;;;14.06;100.00;100473.00;5047606;28;20055;-65
2022/05/29 11:24:02;;;;;;;3.22;1.52;;;;;;;14.19;100.00;100428.97;5041802;28;20032;-65
2022/05/29 11:26:37;;;;;;;3.42;1.85;;;;;;;14.79;100.00;100462.97;5050279;28;20036;-64
2022/05/29 11:29:30;;;;;;;4.60;1.98;;;;;;;14.96;100.00;100468.00;5052512;28;20076;-63
2022/05/29 11:32:10;;;;;;;4.78;2.33;;;;;;;14.95;100.00;100471.59;5054762;28;20031;-64
2022/05/29 11:35:04;;;;;;;4.22;1.67;;;;;;;14.72;100.00;100451.09;5071255;28;20035;-64
2022/05/29 11:37:35;;;;;;;5.63;1.98;;;;;;;14.70;100.00;100456.47;5067067;28;20051;-64
2022/05/29 11:40:19;;;;;;;9.55;2.92;;;;;;;14.32;100.00;100450.19;5070161;28;20092;-64
2022/05/29 11:43:23;;;;;;;6.47;2.40;;;;;;;13.97;100.00;100452.44;5059718;28;20032;-64
2022/05/29 11:52:28;;;;;;;6.35;2.58;;;;;;;12.91;100.00;100456.31;5020768;28;20106;-65
2022/05/29 11:55:22;;;;;;;6.15;2.80;;;;;;;12.80;100.00;100454.31;5063288;28;20429;-64
2022/05/29 11:57:55;;;;;;;3.30;1.87;;;;;;;12.69;100.00;100450.59;5070347;28;20067;-65
2022/05/29 12:00:39;;;;;;;8.43;2.25;;;;;;;12.77;100.00;100443.94;5061682;28;20143;-65
2022/05/29 12:03:18;;;;;;;2.33;1.23;;;;;;;13.34;100.00;100427.41;5043839;28;20039;-65
2022/05/29 12:05:55;;;;;;;4.85;2.08;;;;;;;13.90;100.00;100437.06;5038750;28;20024;-66
2022/05/29 12:09:01;;;;;;;4.13;1.60;;;;;;;13.28;100.00;100440.00;5047097;28;20059;-64
2022/05/29 12:11:42;;;;;;;5.03;1.92;;;;;;;13.34;100.00;100448.50;5047731;28;20043;-65
2022/05/29 12:14:10;;;;;;;8.98;1.63;;;;;;;13.37;100.00;100436.00;5049959;28;20031;-65
2022/05/29 12:16:40;;;;;;;4.82;1.67;;;;;;;13.38;100.00;100442.97;5059097;28;20043;-64
2022/05/29 12:19:10;;;;;;;3.80;2.00;;;;;;;13.15;100.00;100425.88;5051760;28;20028;-64